createdAt,value
2023-02-22T00:02:10.606Z,12.50
2023-02-22T00:04:39.644Z,12.50
2023-02-22T00:07:07.579Z,12.50
2023-02-22T00:09:34.818Z,12.40
2023-02-22T00:12:02.200Z,12.40
2023-02-22T00:14:29.012Z,12.40
2023-02-22T00:16:59.607Z,12.40
2023-02-22T00:19:28.081Z,12.40
2023-02-22T00:21:55.283Z,12.30
2023-02-22T00:24:24.837Z,12.30
2023-02-22T00:26:55.724Z,12.30
2023-02-22T00:29:24.008Z,12.30
2023-02-22T00:31:50.906Z,12.20
2023-02-22T00:34:18.243Z,12.20
2023-02-22T00:36:49.356Z,12.10
2023-02-22T00:39:16.424Z,12.10
2023-02-22T00:41:43.623Z,12.10
2023-02-22T00:44:10.990Z,12.00
2023-02-22T00:46:39.416Z,12.00
2023-02-22T00:49:06.702Z,12.00
2023-02-22T00:51:33.910Z,11.90
2023-02-22T00:54:01.037Z,11.90
2023-02-22T00:56:28.096Z,11.90
2023-02-22T00:58:54.931Z,11.80
2023-02-22T01:01:22.347Z,11.90
2023-02-22T01:03:49.161Z,11.80
2023-02-22T01:06:16.578Z,11.80
2023-02-22T01:08:47.398Z,11.70
2023-02-22T01:11:15.900Z,11.70
2023-02-22T01:13:45.244Z,11.70
2023-02-22T01:16:12.063Z,11.60
2023-02-22T01:18:38.940Z,11.60
2023-02-22T01:21:06.589Z,11.60
2023-02-22T01:23:33.408Z,11.60
2023-02-22T01:26:00.482Z,11.50
2023-02-22T01:28:29.475Z,11.50
2023-02-22T01:30:56.783Z,11.50
2023-02-22T01:33:25.619Z,11.50
2023-02-22T01:35:53.108Z,11.50
2023-02-22T01:38:20.140Z,11.40
2023-02-22T01:40:49.973Z,11.40
2023-02-22T01:43:27.093Z,11.40
2023-02-22T01:45:55.870Z,11.40
2023-02-22T01:48:30.832Z,11.40
2023-02-22T01:51:02.198Z,11.40
2023-02-22T01:53:36.156Z,11.40
2023-02-22T01:56:04.113Z,11.40
2023-02-22T01:58:34.761Z,11.40
2023-02-22T02:01:01.601Z,11.40
2023-02-22T02:03:33.165Z,11.40
2023-02-22T02:06:03.934Z,11.30
2023-02-22T02:08:54.998Z,11.30
2023-02-22T02:11:25.628Z,11.30
2023-02-22T02:13:55.302Z,11.30
2023-02-22T02:16:39.010Z,11.30
2023-02-22T02:19:36.209Z,11.30
2023-02-22T02:22:19.666Z,11.30
2023-02-22T02:25:24.161Z,11.30
2023-02-22T02:28:27.295Z,11.20
2023-02-22T02:31:12.747Z,11.20
2023-02-22T02:33:53.160Z,11.20
2023-02-22T02:36:32.644Z,11.20
2023-02-22T02:39:36.920Z,11.20
2023-02-22T02:42:10.214Z,11.20
2023-02-22T02:44:51.571Z,11.20
2023-02-22T02:47:24.048Z,11.20
2023-02-22T02:50:09.744Z,11.20
2023-02-22T02:52:39.384Z,11.20
2023-02-22T02:55:08.364Z,11.10
2023-02-22T02:57:35.126Z,11.10
2023-02-22T03:00:01.953Z,11.10
2023-02-22T03:02:50.373Z,11.00
2023-02-22T03:05:35.873Z,11.10
2023-02-22T03:08:15.914Z,11.00
2023-02-22T03:10:45.745Z,11.00
2023-02-22T03:13:31.086Z,11.00
2023-02-22T03:16:13.047Z,11.00
2023-02-22T03:18:55.196Z,11.00
2023-02-22T03:21:33.927Z,11.00
2023-02-22T03:24:13.984Z,11.00
2023-02-22T03:26:49.621Z,10.90
2023-02-22T03:29:19.842Z,11.00
2023-02-22T03:32:01.369Z,10.90
2023-02-22T03:34:42.502Z,10.90
2023-02-22T03:37:22.144Z,10.90
2023-02-22T03:39:54.137Z,10.90
2023-02-22T03:42:33.043Z,10.90
2023-02-22T03:45:05.097Z,10.90
2023-02-22T03:47:41.056Z,10.90
2023-02-22T03:50:21.473Z,10.90
2023-02-22T03:52:48.870Z,10.80
2023-02-22T03:55:23.758Z,10.80
2023-02-22T03:57:54.944Z,10.80
2023-02-22T04:00:25.329Z,10.80
2023-02-22T04:02:52.317Z,10.70
2023-02-22T04:05:21.323Z,10.70
2023-02-22T04:07:48.170Z,10.70
2023-02-22T04:10:16.468Z,10.70
2023-02-22T04:12:43.959Z,10.70
2023-02-22T04:15:20.009Z,10.70
2023-02-22T04:17:48.122Z,10.60
2023-02-22T04:20:19.787Z,10.60
2023-02-22T04:22:56.112Z,10.60
2023-02-22T04:25:24.104Z,10.50
2023-02-22T04:27:52.525Z,10.50
2023-02-22T04:30:24.607Z,10.50
2023-02-22T04:32:51.594Z,10.40
2023-02-22T04:35:21.200Z,10.40
2023-02-22T04:37:48.011Z,10.40
2023-02-22T04:40:16.947Z,10.30
2023-02-22T04:42:44.204Z,10.30
2023-02-22T04:45:11.582Z,10.30
2023-02-22T04:47:39.483Z,10.30
2023-02-22T04:50:09.299Z,10.30
2023-02-22T04:52:36.132Z,10.20
2023-02-22T04:55:04.773Z,10.20
2023-02-22T04:57:32.310Z,10.10
2023-02-22T04:59:59.301Z,10.10
2023-02-22T05:02:26.315Z,10.10
2023-02-22T05:04:53.421Z,10.10
2023-02-22T05:07:20.231Z,10.10
2023-02-22T05:09:46.996Z,10.10
2023-02-22T05:12:13.796Z,10.10
2023-02-22T05:14:41.550Z,10.10
2023-02-22T05:17:08.625Z,10.10
2023-02-22T05:19:35.608Z,10.10
2023-02-22T05:22:02.624Z,10.10
2023-02-22T05:24:29.509Z,10.10
2023-02-22T05:26:56.255Z,10.10
2023-02-22T05:29:23.037Z,10.10
2023-02-22T05:31:49.989Z,10.10
2023-02-22T05:34:17.420Z,10.10
2023-02-22T05:36:44.517Z,10.10
2023-02-22T05:39:12.241Z,10.00
2023-02-22T05:41:39.163Z,10.00
2023-02-22T05:44:06.172Z,10.00
2023-02-22T05:46:33.089Z,10.00
2023-02-22T05:49:00.041Z,10.00
2023-02-22T05:51:27.245Z,10.00
2023-02-22T05:53:54.327Z,10.00
2023-02-22T05:56:23.458Z,10.00
2023-02-22T05:58:50.816Z,10.00
2023-02-22T06:01:18.388Z,10.00
2023-02-22T06:03:50.760Z,10.00
2023-02-22T06:06:20.058Z,10.00
2023-02-22T06:08:48.183Z,10.00
2023-02-22T06:11:15.932Z,10.00
2023-02-22T06:13:42.987Z,10.00
2023-02-22T06:16:10.012Z,10.00
2023-02-22T06:18:37.131Z,10.00
2023-02-22T06:21:04.425Z,10.00
2023-02-22T06:23:31.450Z,10.00
2023-02-22T06:25:58.475Z,10.00
2023-02-22T06:28:26.380Z,10.00
2023-02-22T06:30:53.391Z,10.00
2023-02-22T06:33:20.290Z,10.00
2023-02-22T06:35:47.497Z,10.00
2023-02-22T06:38:22.666Z,10.00
2023-02-22T06:40:49.704Z,10.00
2023-02-22T06:43:16.856Z,10.00
2023-02-22T06:45:44.037Z,10.00
2023-02-22T06:48:10.845Z,10.00
2023-02-22T06:50:37.893Z,9.90
2023-02-22T06:53:04.915Z,9.90
2023-02-22T06:55:34.181Z,9.90
2023-02-22T06:58:02.917Z,9.80
2023-02-22T07:00:32.232Z,9.80
2023-02-22T07:02:59.986Z,9.70
2023-02-22T07:05:27.709Z,9.70
2023-02-22T07:08:01.658Z,9.70
2023-02-22T07:10:32.295Z,9.70
2023-02-22T07:12:59.457Z,9.70
2023-02-22T07:15:28.188Z,9.70
2023-02-22T07:17:55.502Z,9.70
2023-02-22T07:20:24.631Z,9.70
2023-02-22T07:22:51.865Z,9.80
2023-02-22T07:25:19.513Z,9.80
2023-02-22T07:27:47.306Z,9.80
2023-02-22T07:30:30.754Z,9.80
2023-02-22T07:32:59.602Z,9.90
2023-02-22T07:35:38.115Z,9.90
2023-02-22T07:38:10.371Z,9.90
2023-02-22T07:40:38.039Z,10.00
2023-02-22T07:43:17.292Z,10.00
2023-02-22T07:45:45.267Z,10.10
2023-02-22T07:48:13.992Z,10.10
2023-02-22T07:50:41.468Z,10.10
2023-02-22T07:53:13.890Z,10.20
2023-02-22T07:55:40.735Z,10.30
2023-02-22T07:58:09.001Z,10.30
2023-02-22T08:00:39.275Z,10.30
2023-02-22T08:03:08.817Z,10.40
2023-02-22T08:05:37.588Z,10.50
2023-02-22T08:08:06.168Z,10.50
2023-02-22T08:10:35.156Z,10.60
2023-02-22T08:13:03.195Z,10.60
2023-02-22T08:15:34.498Z,10.70
2023-02-22T08:18:02.413Z,10.80
2023-02-22T08:20:30.240Z,10.80
2023-02-22T08:22:58.197Z,10.90
2023-02-22T08:25:27.248Z,10.90
2023-02-22T08:27:58.872Z,11.00
2023-02-22T08:30:26.020Z,11.10
2023-02-22T08:32:53.095Z,11.20
2023-02-22T08:35:20.999Z,11.20
2023-02-22T08:37:50.051Z,11.30
2023-02-22T08:40:19.518Z,11.40
2023-02-22T08:42:46.283Z,11.40
2023-02-22T08:45:13.828Z,11.50
2023-02-22T08:47:41.386Z,11.60
2023-02-22T08:50:09.953Z,11.70
2023-02-22T08:52:36.762Z,11.80
2023-02-22T08:55:03.719Z,11.80
2023-02-22T08:57:31.825Z,11.90
2023-02-22T08:59:58.719Z,12.00
2023-02-22T09:02:25.594Z,12.10
2023-02-22T09:04:52.407Z,12.20
2023-02-22T09:07:19.183Z,12.30
2023-02-22T09:09:46.131Z,12.40
2023-02-22T09:12:12.949Z,12.50
2023-02-22T09:14:39.808Z,12.60
2023-02-22T09:17:06.687Z,12.70
2023-02-22T09:19:33.530Z,12.80
2023-02-22T09:22:00.581Z,12.90
2023-02-22T09:24:27.845Z,13.10
2023-02-22T09:26:54.747Z,13.20
2023-02-22T09:29:24.112Z,13.40
2023-02-22T09:31:52.810Z,13.50
2023-02-22T09:34:22.707Z,13.70
2023-02-22T09:36:50.405Z,13.90
2023-02-22T09:39:18.217Z,14.00
2023-02-22T09:41:57.833Z,14.20
2023-02-22T09:44:43.308Z,14.30
2023-02-22T09:47:18.308Z,14.50
2023-02-22T09:50:02.410Z,14.60
2023-02-22T09:52:37.048Z,14.80
2023-02-22T09:55:16.278Z,15.00
2023-02-22T09:57:44.073Z,15.20
2023-02-22T10:00:23.835Z,15.40
2023-02-22T10:03:16.343Z,15.50
2023-02-22T10:05:49.345Z,15.70
2023-02-22T10:08:19.040Z,15.90
2023-02-22T10:10:52.665Z,16.10
2023-02-22T10:13:28.965Z,16.30
2023-02-22T10:16:11.333Z,16.40
2023-02-22T10:19:01.374Z,16.60
2023-02-22T10:21:53.811Z,16.70
2023-02-22T10:24:22.968Z,16.90
2023-02-22T10:26:50.818Z,17.00
2023-02-22T10:29:19.039Z,17.10
2023-02-22T10:31:56.107Z,17.20
2023-02-22T10:34:26.066Z,17.30
2023-02-22T10:37:04.678Z,17.30
2023-02-22T10:39:38.195Z,17.40
2023-02-22T10:42:08.051Z,17.50
2023-02-22T10:44:39.247Z,17.60
2023-02-22T10:47:17.608Z,17.70
2023-02-22T10:49:50.219Z,17.70
2023-02-22T10:52:27.164Z,17.80
2023-02-22T10:55:13.692Z,17.80
2023-02-22T10:57:43.988Z,17.90
2023-02-22T11:00:19.916Z,17.90
2023-02-22T11:03:01.800Z,17.90
2023-02-22T11:05:38.651Z,17.90
2023-02-22T11:08:26.172Z,18.00
2023-02-22T11:11:00.213Z,18.00
2023-02-22T11:13:38.662Z,18.10
2023-02-22T11:16:28.474Z,18.10
2023-02-22T11:19:07.041Z,18.10
2023-02-22T11:21:33.997Z,18.20
2023-02-22T11:24:08.628Z,18.10
2023-02-22T11:26:45.846Z,18.10
2023-02-22T11:29:32.730Z,18.10
2023-02-22T11:32:21.111Z,18.00
2023-02-22T11:35:00.208Z,18.00
2023-02-22T11:37:38.707Z,17.90
2023-02-22T11:40:22.145Z,17.80
2023-02-22T11:43:16.744Z,17.70
2023-02-22T11:46:12.644Z,17.60
2023-02-22T11:48:44.954Z,17.60
2023-02-22T11:51:28.674Z,17.50
2023-02-22T11:53:58.877Z,17.50
2023-02-22T11:56:37.724Z,17.40
2023-02-22T11:59:11.544Z,17.30
2023-02-22T12:01:57.443Z,17.30
2023-02-22T12:04:51.067Z,17.20
2023-02-22T12:07:30.017Z,17.20
2023-02-22T12:10:29.434Z,17.10
2023-02-22T12:13:03.777Z,17.10
2023-02-22T12:15:46.226Z,17.10
2023-02-22T12:18:35.005Z,17.00
2023-02-22T12:21:07.706Z,17.00
2023-02-22T12:23:45.003Z,17.00
2023-02-22T12:26:17.102Z,16.90
2023-02-22T12:28:51.517Z,16.90
2023-02-22T12:31:46.241Z,16.90
2023-02-22T12:34:33.302Z,16.90
2023-02-22T12:37:16.211Z,16.90
2023-02-22T12:40:06.361Z,16.90
2023-02-22T12:42:58.525Z,16.90
2023-02-22T12:45:34.622Z,16.90
2023-02-22T12:48:18.338Z,16.90
2023-02-22T12:50:49.305Z,16.90
2023-02-22T12:53:21.994Z,16.90
2023-02-22T12:55:56.685Z,16.90
2023-02-22T12:58:54.109Z,16.90
2023-02-22T13:01:24.931Z,16.90
2023-02-22T13:03:55.824Z,16.90
2023-02-22T13:06:47.023Z,16.90
2023-02-22T13:09:51.151Z,16.90
2023-02-22T13:12:17.973Z,16.90
2023-02-22T13:15:00.349Z,16.90
2023-02-22T13:17:33.373Z,16.90
2023-02-22T13:20:18.432Z,16.90
2023-02-22T13:23:12.318Z,16.90
2023-02-22T13:25:43.678Z,16.90
2023-02-22T13:28:21.018Z,16.90
2023-02-22T13:31:36.000Z,16.90
2023-02-22T13:34:13.193Z,16.90
2023-02-22T13:37:07.130Z,17.00
2023-02-22T13:39:45.968Z,17.00
2023-02-22T13:42:34.015Z,17.00
2023-02-22T13:45:04.132Z,17.00
2023-02-22T13:47:34.100Z,17.00
2023-02-22T13:50:16.286Z,17.00
2023-02-22T13:52:44.282Z,17.00
2023-02-22T13:55:22.302Z,17.00
2023-02-22T13:57:51.640Z,17.00
2023-02-22T14:00:23.055Z,17.00
2023-02-22T14:03:08.232Z,17.00
2023-02-22T14:05:36.395Z,17.00
2023-02-22T14:08:03.712Z,17.00
2023-02-22T14:11:00.771Z,17.00
2023-02-22T14:13:29.235Z,17.00
2023-02-22T14:16:02.588Z,17.00
2023-02-22T14:18:30.872Z,17.00
2023-02-22T14:21:11.714Z,17.00
2023-02-22T14:23:41.072Z,17.00
2023-02-22T14:26:16.952Z,17.10
2023-02-22T14:28:54.392Z,17.10
2023-02-22T14:31:36.930Z,17.10
2023-02-22T14:34:11.576Z,17.10
2023-02-22T14:37:05.194Z,17.10
2023-02-22T14:39:38.326Z,17.10
2023-02-22T14:42:27.198Z,17.10
2023-02-22T14:44:57.258Z,17.10
2023-02-22T14:47:43.753Z,17.10
2023-02-22T14:50:23.621Z,17.10
2023-02-22T14:53:22.241Z,17.10
2023-02-22T14:55:56.448Z,17.10
2023-02-22T14:58:45.988Z,17.20
2023-02-22T15:01:47.453Z,17.20
2023-02-22T15:04:28.863Z,17.10
2023-02-22T15:06:58.139Z,17.10
2023-02-22T15:09:34.790Z,17.10
2023-02-22T15:12:05.025Z,17.20
2023-02-22T15:14:38.904Z,17.20
2023-02-22T15:17:24.985Z,17.20
2023-02-22T15:19:53.112Z,17.20
2023-02-22T15:22:22.156Z,17.20
2023-02-22T15:25:08.139Z,17.20
2023-02-22T15:27:37.274Z,17.20
2023-02-22T15:30:26.641Z,17.20
2023-02-22T15:33:04.187Z,17.20
2023-02-22T15:35:33.859Z,17.20
2023-02-22T15:38:03.720Z,17.20
2023-02-22T15:40:33.150Z,17.20
2023-02-22T15:43:03.264Z,17.20
2023-02-22T15:45:32.397Z,17.20
2023-02-22T15:47:59.815Z,17.20
2023-02-22T15:50:29.178Z,17.20
2023-02-22T15:52:59.057Z,17.20
2023-02-22T15:55:36.239Z,17.20
2023-02-22T15:58:22.284Z,17.20
2023-02-22T16:01:07.951Z,17.20
2023-02-22T16:03:47.679Z,17.20
2023-02-22T16:06:37.940Z,17.20
2023-02-22T16:09:15.258Z,17.20
2023-02-22T16:11:44.503Z,17.20
2023-02-22T16:14:30.721Z,17.20
2023-02-22T16:17:29.596Z,17.20
2023-02-22T16:20:21.387Z,17.20
2023-02-22T16:22:49.746Z,17.20
2023-02-22T16:25:19.701Z,17.10
2023-02-22T16:27:52.744Z,17.10
2023-02-22T16:30:25.919Z,17.10
2023-02-22T16:32:55.325Z,17.10
2023-02-22T16:35:28.374Z,17.10
2023-02-22T16:37:58.670Z,17.10
2023-02-22T16:40:35.811Z,17.10
2023-02-22T16:43:06.122Z,17.10
2023-02-22T16:45:33.149Z,17.00
2023-02-22T16:48:00.743Z,17.00
2023-02-22T16:50:27.559Z,17.00
2023-02-22T16:52:58.605Z,17.00
2023-02-22T16:55:26.166Z,17.00
2023-02-22T16:57:56.863Z,17.00
2023-02-22T17:00:31.401Z,17.00
2023-02-22T17:03:02.738Z,17.00
2023-02-22T17:05:31.167Z,17.00
2023-02-22T17:07:58.560Z,17.00
2023-02-22T17:10:26.262Z,16.90
2023-02-22T17:12:53.582Z,16.90
2023-02-22T17:15:29.959Z,16.90
2023-02-22T17:17:57.263Z,16.90
2023-02-22T17:20:30.484Z,16.80
2023-02-22T17:23:00.957Z,16.80
2023-02-22T17:25:35.270Z,16.80
2023-02-22T17:28:02.327Z,16.80
2023-02-22T17:30:31.244Z,16.70
2023-02-22T17:33:03.856Z,16.70
2023-02-22T17:35:37.257Z,16.70
2023-02-22T17:38:06.302Z,16.70
2023-02-22T17:40:35.194Z,16.70
2023-02-22T17:43:02.558Z,16.60
2023-02-22T17:45:30.547Z,16.60
2023-02-22T17:47:59.160Z,16.60
2023-02-22T17:50:27.301Z,16.60
2023-02-22T17:52:54.636Z,16.50
2023-02-22T17:55:22.213Z,16.50
2023-02-22T17:57:58.290Z,16.50
2023-02-22T18:00:33.157Z,16.40
2023-02-22T18:03:06.804Z,16.40
2023-02-22T18:05:38.843Z,16.40
2023-02-22T18:08:05.761Z,16.40
2023-02-22T18:10:32.647Z,16.40
2023-02-22T18:13:01.940Z,16.30
2023-02-22T18:15:29.213Z,16.30
2023-02-22T18:17:56.617Z,16.30
2023-02-22T18:20:31.099Z,16.30
2023-02-22T18:22:58.831Z,16.20
2023-02-22T18:25:27.173Z,16.20
2023-02-22T18:27:55.078Z,16.20
2023-02-22T18:30:22.113Z,16.10
2023-02-22T18:32:49.073Z,16.10
2023-02-22T18:35:15.948Z,16.10
2023-02-22T18:37:44.414Z,16.00
2023-02-22T18:40:11.405Z,16.00
2023-02-22T18:42:39.523Z,16.00
2023-02-22T18:45:08.029Z,15.90
2023-02-22T18:47:40.704Z,15.90
2023-02-22T18:50:08.810Z,15.90
2023-02-22T18:52:44.789Z,15.90
2023-02-22T18:55:29.857Z,15.80
2023-02-22T18:57:57.014Z,15.80
2023-02-22T19:00:28.987Z,15.80
2023-02-22T19:02:57.847Z,15.70
2023-02-22T19:05:25.167Z,15.70
2023-02-22T19:07:52.023Z,15.70
2023-02-22T19:10:22.304Z,15.60
2023-02-22T19:12:49.473Z,15.60
2023-02-22T19:15:16.757Z,15.60
2023-02-22T19:17:43.751Z,15.60
2023-02-22T19:20:11.096Z,15.60
2023-02-22T19:25:10.268Z,15.40
2023-02-22T19:27:37.596Z,15.40
2023-02-22T19:30:04.913Z,15.30
2023-02-22T19:32:33.602Z,15.30
2023-02-22T19:35:06.980Z,15.30
2023-02-22T19:37:35.753Z,15.30
2023-02-22T19:40:07.332Z,15.20
2023-02-22T19:42:34.914Z,15.20
2023-02-22T19:45:02.003Z,15.20
2023-02-22T19:47:29.137Z,15.10
2023-02-22T19:49:59.687Z,15.10
2023-02-22T19:52:29.024Z,15.10
2023-02-22T19:54:56.179Z,15.10
2023-02-22T19:57:24.350Z,15.10
2023-02-22T19:59:51.387Z,15.10
2023-02-22T20:02:18.361Z,15.00
2023-02-22T20:04:45.339Z,15.00
2023-02-22T20:07:12.195Z,15.00
2023-02-22T20:09:40.292Z,15.00
2023-02-22T20:12:07.815Z,15.00
2023-02-22T20:14:35.220Z,15.00
2023-02-22T20:17:02.514Z,15.00
2023-02-22T20:19:29.885Z,15.00
2023-02-22T20:21:57.250Z,15.00
2023-02-22T20:24:25.173Z,15.00
2023-02-22T20:26:55.841Z,15.00
2023-02-22T20:29:29.478Z,15.00
2023-02-22T20:32:01.133Z,15.00
2023-02-22T20:34:33.246Z,15.00
2023-02-22T20:37:00.868Z,15.10
2023-02-22T20:39:29.399Z,15.10
2023-02-22T20:42:00.318Z,15.10
2023-02-22T20:44:27.264Z,15.10
2023-02-22T20:46:54.176Z,15.10
2023-02-22T20:49:21.542Z,15.10
2023-02-22T20:51:48.974Z,15.20
2023-02-22T20:54:16.943Z,15.20
2023-02-22T20:56:45.690Z,15.20
2023-02-22T20:59:14.748Z,15.20
2023-02-22T21:01:42.344Z,15.20
2023-02-22T21:04:11.149Z,15.30
2023-02-22T21:06:39.470Z,15.30
2023-02-22T21:09:10.892Z,15.30
2023-02-22T21:11:39.018Z,15.30
2023-02-22T21:14:06.271Z,15.30
2023-02-22T21:16:35.749Z,15.30
2023-02-22T21:19:05.920Z,15.30
2023-02-22T21:21:32.903Z,15.40
2023-02-22T21:24:01.796Z,15.40
2023-02-22T21:26:32.317Z,15.40
2023-02-22T21:29:01.060Z,15.40
2023-02-22T21:31:28.607Z,15.40
2023-02-22T21:33:57.432Z,15.40
2023-02-22T21:36:25.703Z,15.40
2023-02-22T21:39:09.480Z,15.40
2023-02-22T21:41:39.156Z,15.40
2023-02-22T21:44:07.302Z,15.50
2023-02-22T21:46:34.170Z,15.50
2023-02-22T21:49:01.163Z,15.50
2023-02-22T21:51:34.181Z,15.50
2023-02-22T21:54:03.494Z,15.50
2023-02-22T21:56:34.275Z,15.50
2023-02-22T21:59:06.578Z,15.50
2023-02-22T22:01:36.567Z,15.50
2023-02-22T22:04:04.757Z,15.50
2023-02-22T22:06:34.514Z,15.50
2023-02-22T22:09:02.560Z,15.60
2023-02-22T22:11:30.610Z,15.50
2023-02-22T22:13:58.941Z,15.50
2023-02-22T22:16:29.753Z,15.50
2023-02-22T22:18:56.912Z,15.50
2023-02-22T22:21:24.444Z,15.50
2023-02-22T22:23:54.455Z,15.50
2023-02-22T22:26:24.630Z,15.60
2023-02-22T22:28:57.546Z,15.60
2023-02-22T22:31:28.266Z,15.60
2023-02-22T22:33:56.744Z,15.60
2023-02-22T22:36:26.609Z,15.60
2023-02-22T22:38:57.229Z,15.60
2023-02-22T22:41:25.043Z,15.60
2023-02-22T22:43:54.068Z,15.60
2023-02-22T22:46:21.549Z,15.60
2023-02-22T22:48:48.654Z,15.60
2023-02-22T22:51:19.810Z,15.60
2023-02-22T22:53:49.231Z,15.60
2023-02-22T22:56:25.944Z,15.60
2023-02-22T22:58:54.969Z,15.60
2023-02-22T23:01:26.977Z,15.60
2023-02-22T23:04:01.751Z,15.60
2023-02-22T23:06:35.663Z,15.60
2023-02-22T23:09:18.540Z,15.60
2023-02-22T23:11:53.210Z,15.60
2023-02-22T23:14:23.342Z,15.60
2023-02-22T23:16:52.682Z,15.60
2023-02-22T23:19:19.877Z,15.60
2023-02-22T23:21:47.833Z,15.60
2023-02-22T23:24:15.858Z,15.70
2023-02-22T23:26:48.669Z,15.70
2023-02-22T23:29:18.787Z,15.70
2023-02-22T23:31:48.187Z,15.70
2023-02-22T23:34:21.227Z,15.70
2023-02-22T23:36:49.362Z,15.70
2023-02-22T23:39:21.919Z,15.70
2023-02-22T23:41:53.227Z,15.70
2023-02-22T23:44:21.425Z,15.70
2023-02-22T23:46:49.856Z,15.70
2023-02-22T23:49:20.718Z,15.70
2023-02-22T23:51:48.500Z,15.70
2023-02-22T23:54:19.252Z,15.70
2023-02-22T23:57:12.814Z,15.70
2023-02-22T23:59:42.320Z,15.70
